sensor_id;sensor_type;location;lat;lon;timestamp;temperature;humidity
14122;DHT22;7139;48.114;11.442;2022-09-29T11:28:12;11.10;99.90
14122;DHT22;7139;48.114;11.442;2022-09-29T11:30:48;11.40;99.90
14122;DHT22;7139;48.114;11.442;2022-09-29T11:33:27;11.10;99.90
14122;DHT22;7139;48.114;11.442;2022-09-29T11:36:05;11.00;99.90
14122;DHT22;7139;48.114;11.442;2022-09-29T11:38:40;10.90;99.90
14122;DHT22;7139;48.114;11.442;2022-09-29T11:44:14;10.90;99.90
14122;DHT22;7139;48.114;11.442;2022-09-29T11:46:54;10.80;99.90
14122;DHT22;7139;48.114;11.442;2022-09-29T11:49:48;10.80;99.90
14122;DHT22;7139;48.114;11.442;2022-09-29T11:52:43;10.80;99.90
14122;DHT22;7139;48.114;11.442;2022-09-29T11:55:27;10.80;99.90
14122;DHT22;7139;48.114;11.442;2022-09-29T11:58:05;10.80;99.90
14122;DHT22;7139;48.114;11.442;2022-09-29T12:00:45;10.80;99.90
14122;DHT22;7139;48.114;11.442;2022-09-29T12:03:29;10.80;99.90
14122;DHT22;7139;48.114;11.442;2022-09-29T12:08:55;10.90;99.90
14122;DHT22;7139;48.114;11.442;2022-09-29T12:11:35;11.00;99.90
14122;DHT22;7139;48.114;11.442;2022-09-29T12:14:08;11.00;99.90
14122;DHT22;7139;48.114;11.442;2022-09-29T12:16:52;11.00;99.90
14122;DHT22;7139;48.114;11.442;2022-09-29T12:19:25;11.00;99.90
14122;DHT22;7139;48.114;11.442;2022-09-29T12:21:54;11.00;99.90
14122;DHT22;7139;48.114;11.442;2022-09-29T12:24:29;11.10;99.90
14122;DHT22;7139;48.114;11.442;2022-09-29T12:26:57;11.10;99.90
14122;DHT22;7139;48.114;11.442;2022-09-29T12:29:31;11.10;99.90
14122;DHT22;7139;48.114;11.442;2022-09-29T12:32:04;11.20;99.90
14122;DHT22;7139;48.114;11.442;2022-09-29T12:34:40;11.20;99.90
14122;DHT22;7139;48.114;11.442;2022-09-29T12:37:14;11.20;99.90
14122;DHT22;7139;48.114;11.442;2022-09-29T12:39:47;11.20;99.90
14122;DHT22;7139;48.114;11.442;2022-09-29T12:42:28;11.30;99.90
14122;DHT22;7139;48.114;11.442;2022-09-29T12:45:01;11.30;99.90
14122;DHT22;7139;48.114;11.442;2022-09-29T12:47:51;11.40;99.90
14122;DHT22;7139;48.114;11.442;2022-09-29T12:50:25;11.40;99.90
14122;DHT22;7139;48.114;11.442;2022-09-29T12:52:57;11.40;99.90
14122;DHT22;7139;48.114;11.442;2022-09-29T12:55:31;11.40;99.90
14122;DHT22;7139;48.114;11.442;2022-09-29T12:58:07;11.40;99.90
14122;DHT22;7139;48.114;11.442;2022-09-29T13:00:35;11.50;99.90
14122;DHT22;7139;48.114;11.442;2022-09-29T13:03:28;11.50;99.90
14122;DHT22;7139;48.114;11.442;2022-09-29T13:06:18;11.50;99.90
14122;DHT22;7139;48.114;11.442;2022-09-29T13:08:57;11.50;99.90
14122;DHT22;7139;48.114;11.442;2022-09-29T13:11:45;11.50;99.90
14122;DHT22;7139;48.114;11.442;2022-09-29T13:14:25;11.50;99.90
14122;DHT22;7139;48.114;11.442;2022-09-29T13:17:02;11.50;99.90
14122;DHT22;7139;48.114;11.442;2022-09-29T13:20:04;11.50;99.90
14122;DHT22;7139;48.114;11.442;2022-09-29T13:22:53;11.50;99.90
14122;DHT22;7139;48.114;11.442;2022-09-29T13:25:29;11.50;99.90
14122;DHT22;7139;48.114;11.442;2022-09-29T13:27:58;11.50;99.90
14122;DHT22;7139;48.114;11.442;2022-09-29T13:30:27;11.50;99.90
14122;DHT22;7139;48.114;11.442;2022-09-29T13:33:00;11.60;99.90
14122;DHT22;7139;48.114;11.442;2022-09-29T13:35:37;11.60;99.90
14122;DHT22;7139;48.114;11.442;2022-09-29T13:38:05;11.50;99.90
14122;DHT22;7139;48.114;11.442;2022-09-29T13:40:33;11.40;99.90
14122;DHT22;7139;48.114;11.442;2022-09-29T13:43:01;11.40;99.90
14122;DHT22;7139;48.114;11.442;2022-09-29T13:45:40;11.40;99.90
14122;DHT22;7139;48.114;11.442;2022-09-29T13:51:27;11.20;99.90
14122;DHT22;7139;48.114;11.442;2022-09-29T14:03:03;11.10;99.90
14122;DHT22;7139;48.114;11.442;2022-09-29T14:05:36;11.10;99.90
14122;DHT22;7139;48.114;11.442;2022-09-29T14:08:15;11.10;99.90
14122;DHT22;7139;48.114;11.442;2022-09-29T14:10:47;11.10;99.90
14122;DHT22;7139;48.114;11.442;2022-09-29T14:13:21;11.00;99.90
14122;DHT22;7139;48.114;11.442;2022-09-29T14:16:10;11.10;99.90
14122;DHT22;7139;48.114;11.442;2022-09-29T14:18:42;11.10;99.90
14122;DHT22;7139;48.114;11.442;2022-09-29T14:21:12;11.00;99.90
14122;DHT22;7139;48.114;11.442;2022-09-29T14:23:51;11.00;99.90
14122;DHT22;7139;48.114;11.442;2022-09-29T14:26:45;11.10;99.90
14122;DHT22;7139;48.114;11.442;2022-09-29T14:29:17;11.10;99.90
14122;DHT22;7139;48.114;11.442;2022-09-29T14:31:48;11.00;99.90
14122;DHT22;7139;48.114;11.442;2022-09-29T14:34:19;11.00;99.90
14122;DHT22;7139;48.114;11.442;2022-09-29T14:36:47;11.00;99.90
14122;DHT22;7139;48.114;11.442;2022-09-29T14:39:16;11.00;99.90
14122;DHT22;7139;48.114;11.442;2022-09-29T14:41:45;11.00;99.90
14122;DHT22;7139;48.114;11.442;2022-09-29T14:44:18;10.90;99.90
14122;DHT22;7139;48.114;11.442;2022-09-29T14:47:16;11.00;99.90
14122;DHT22;7139;48.114;11.442;2022-09-29T14:50:20;11.10;99.90
14122;DHT22;7139;48.114;11.442;2022-09-29T14:53:24;11.00;99.90
14122;DHT22;7139;48.114;11.442;2022-09-29T14:56:05;10.90;99.90
14122;DHT22;7139;48.114;11.442;2022-09-29T14:58:46;10.80;99.90
14122;DHT22;7139;48.114;11.442;2022-09-29T15:01:25;10.80;99.90
14122;DHT22;7139;48.114;11.442;2022-09-29T15:03:54;10.80;99.90
14122;DHT22;7139;48.114;11.442;2022-09-29T15:06:24;10.70;99.90
14122;DHT22;7139;48.114;11.442;2022-09-29T15:08:54;10.70;99.90
14122;DHT22;7139;48.114;11.442;2022-09-29T15:11:27;10.70;99.90
14122;DHT22;7139;48.114;11.442;2022-09-29T15:13:54;10.60;99.90
14122;DHT22;7139;48.114;11.442;2022-09-29T15:16:26;10.60;99.90
14122;DHT22;7139;48.114;11.442;2022-09-29T15:19:06;10.50;99.90
14122;DHT22;7139;48.114;11.442;2022-09-29T15:21:41;10.50;99.90
14122;DHT22;7139;48.114;11.442;2022-09-29T15:24:25;10.50;99.90
14122;DHT22;7139;48.114;11.442;2022-09-29T15:27:00;10.40;99.90
14122;DHT22;7139;48.114;11.442;2022-09-29T15:29:27;10.40;99.90
14122;DHT22;7139;48.114;11.442;2022-09-29T15:31:54;10.30;99.90
14122;DHT22;7139;48.114;11.442;2022-09-29T15:34:23;10.30;99.90
14122;DHT22;7139;48.114;11.442;2022-09-29T15:36:52;10.30;99.90
14122;DHT22;7139;48.114;11.442;2022-09-29T15:39:43;10.20;99.90
14122;DHT22;7139;48.114;11.442;2022-09-29T15:42:17;10.20;99.90
14122;DHT22;7139;48.114;11.442;2022-09-29T15:44:51;10.20;99.90
14122;DHT22;7139;48.114;11.442;2022-09-29T15:47:26;10.20;99.90
14122;DHT22;7139;48.114;11.442;2022-09-29T15:49:53;10.10;99.90
14122;DHT22;7139;48.114;11.442;2022-09-29T15:52:20;10.10;99.90
14122;DHT22;7139;48.114;11.442;2022-09-29T15:54:56;10.10;99.90
14122;DHT22;7139;48.114;11.442;2022-09-29T15:57:40;10.10;99.90
14122;DHT22;7139;48.114;11.442;2022-09-29T16:03:15;10.10;99.90
14122;DHT22;7139;48.114;11.442;2022-09-29T16:08:37;10.10;99.90
14122;DHT22;7139;48.114;11.442;2022-09-29T16:11:07;10.10;99.90
14122;DHT22;7139;48.114;11.442;2022-09-29T16:13:38;10.10;99.90
14122;DHT22;7139;48.114;11.442;2022-09-29T16:16:08;10.10;99.90
14122;DHT22;7139;48.114;11.442;2022-09-29T16:18:39;10.10;99.90
14122;DHT22;7139;48.114;11.442;2022-09-29T16:21:09;10.10;99.90
14122;DHT22;7139;48.114;11.442;2022-09-29T16:23:41;10.00;99.90
14122;DHT22;7139;48.114;11.442;2022-09-29T16:26:14;10.10;99.90
14122;DHT22;7139;48.114;11.442;2022-09-29T16:31:37;10.10;99.90
14122;DHT22;7139;48.114;11.442;2022-09-29T16:34:22;10.00;99.90
14122;DHT22;7139;48.114;11.442;2022-09-29T16:36:49;10.00;99.90
14122;DHT22;7139;48.114;11.442;2022-09-29T16:39:19;10.00;99.90
14122;DHT22;7139;48.114;11.442;2022-09-29T16:41:47;10.10;99.90
14122;DHT22;7139;48.114;11.442;2022-09-29T16:44:16;10.10;99.90
14122;DHT22;7139;48.114;11.442;2022-09-29T16:46:47;10.10;99.90
14122;DHT22;7139;48.114;11.442;2022-09-29T16:49:18;10.10;99.90
14122;DHT22;7139;48.114;11.442;2022-09-29T16:51:47;10.10;99.90
14122;DHT22;7139;48.114;11.442;2022-09-29T16:54:16;10.00;99.90
14122;DHT22;7139;48.114;11.442;2022-09-29T16:56:47;10.10;99.90
14122;DHT22;7139;48.114;11.442;2022-09-29T16:59:15;10.10;99.90
14122;DHT22;7139;48.114;11.442;2022-09-29T17:01:44;10.10;99.90
14122;DHT22;7139;48.114;11.442;2022-09-29T17:04:13;10.10;99.90
14122;DHT22;7139;48.114;11.442;2022-09-29T17:06:44;10.10;99.90
14122;DHT22;7139;48.114;11.442;2022-09-29T17:09:16;10.10;99.90
14122;DHT22;7139;48.114;11.442;2022-09-29T17:11:43;10.10;99.90
14122;DHT22;7139;48.114;11.442;2022-09-29T17:14:14;10.10;99.90
14122;DHT22;7139;48.114;11.442;2022-09-29T17:16:41;10.10;99.90
14122;DHT22;7139;48.114;11.442;2022-09-29T17:19:09;10.00;99.90
14122;DHT22;7139;48.114;11.442;2022-09-29T17:21:38;10.00;99.90
14122;DHT22;7139;48.114;11.442;2022-09-29T17:24:04;10.00;99.90
14122;DHT22;7139;48.114;11.442;2022-09-29T17:26:35;10.00;99.90
14122;DHT22;7139;48.114;11.442;2022-09-29T17:29:20;10.10;99.90
14122;DHT22;7139;48.114;11.442;2022-09-29T17:31:48;10.10;99.90
14122;DHT22;7139;48.114;11.442;2022-09-29T17:34:16;10.10;99.90
14122;DHT22;7139;48.114;11.442;2022-09-29T17:36:54;10.00;99.90
14122;DHT22;7139;48.114;11.442;2022-09-29T17:39:24;10.00;99.90
14122;DHT22;7139;48.114;11.442;2022-09-29T17:41:50;10.00;99.90
14122;DHT22;7139;48.114;11.442;2022-09-29T17:44:17;10.10;99.90
14122;DHT22;7139;48.114;11.442;2022-09-29T17:46:45;10.00;99.90
14122;DHT22;7139;48.114;11.442;2022-09-29T17:49:13;10.00;99.90
14122;DHT22;7139;48.114;11.442;2022-09-29T17:51:41;10.00;99.90
14122;DHT22;7139;48.114;11.442;2022-09-29T17:54:09;10.00;99.90
14122;DHT22;7139;48.114;11.442;2022-09-29T17:56:39;10.00;99.90
14122;DHT22;7139;48.114;11.442;2022-09-29T17:59:06;10.00;99.90
14122;DHT22;7139;48.114;11.442;2022-09-29T18:01:35;9.90;99.90
14122;DHT22;7139;48.114;11.442;2022-09-29T18:04:03;9.90;99.90
14122;DHT22;7139;48.114;11.442;2022-09-29T18:06:30;9.90;99.90
14122;DHT22;7139;48.114;11.442;2022-09-29T18:09:03;9.90;99.90
14122;DHT22;7139;48.114;11.442;2022-09-29T18:11:39;9.90;99.90
14122;DHT22;7139;48.114;11.442;2022-09-29T18:14:05;9.90;99.90
14122;DHT22;7139;48.114;11.442;2022-09-29T18:16:32;9.80;99.90
14122;DHT22;7139;48.114;11.442;2022-09-29T18:18:59;9.90;99.90
14122;DHT22;7139;48.114;11.442;2022-09-29T18:21:26;9.90;99.90
14122;DHT22;7139;48.114;11.442;2022-09-29T18:23:54;9.90;99.90
14122;DHT22;7139;48.114;11.442;2022-09-29T18:26:21;9.90;99.90
14122;DHT22;7139;48.114;11.442;2022-09-29T18:28:52;9.90;99.90
14122;DHT22;7139;48.114;11.442;2022-09-29T18:31:22;9.90;99.90
14122;DHT22;7139;48.114;11.442;2022-09-29T18:33:49;9.90;99.90
14122;DHT22;7139;48.114;11.442;2022-09-29T18:36:16;9.90;99.90
14122;DHT22;7139;48.114;11.442;2022-09-29T18:38:43;9.90;99.90
14122;DHT22;7139;48.114;11.442;2022-09-29T18:41:13;9.90;99.90
14122;DHT22;7139;48.114;11.442;2022-09-29T18:43:41;9.90;99.90
14122;DHT22;7139;48.114;11.442;2022-09-29T18:46:10;9.90;99.90
14122;DHT22;7139;48.114;11.442;2022-09-29T18:48:38;9.90;99.90
14122;DHT22;7139;48.114;11.442;2022-09-29T18:51:05;9.90;99.90
14122;DHT22;7139;48.114;11.442;2022-09-29T18:53:32;9.90;99.90
14122;DHT22;7139;48.114;11.442;2022-09-29T18:56:01;9.90;99.90
14122;DHT22;7139;48.114;11.442;2022-09-29T18:58:29;9.90;99.90
14122;DHT22;7139;48.114;11.442;2022-09-29T19:00:56;9.90;99.90
14122;DHT22;7139;48.114;11.442;2022-09-29T19:03:26;9.90;99.90
14122;DHT22;7139;48.114;11.442;2022-09-29T19:05:54;9.90;99.90
14122;DHT22;7139;48.114;11.442;2022-09-29T19:08:21;9.90;99.90
14122;DHT22;7139;48.114;11.442;2022-09-29T19:10:55;9.90;99.90
14122;DHT22;7139;48.114;11.442;2022-09-29T19:13:23;9.80;99.90
14122;DHT22;7139;48.114;11.442;2022-09-29T19:15:54;9.90;99.90
14122;DHT22;7139;48.114;11.442;2022-09-29T19:18:23;9.80;99.90
14122;DHT22;7139;48.114;11.442;2022-09-29T19:20:52;9.90;99.90
14122;DHT22;7139;48.114;11.442;2022-09-29T19:23:20;9.90;99.90
14122;DHT22;7139;48.114;11.442;2022-09-29T19:25:48;9.80;99.90
14122;DHT22;7139;48.114;11.442;2022-09-29T19:28:16;9.90;99.90
14122;DHT22;7139;48.114;11.442;2022-09-29T19:30:44;9.80;99.90
14122;DHT22;7139;48.114;11.442;2022-09-29T19:33:14;9.80;99.90
14122;DHT22;7139;48.114;11.442;2022-09-29T19:35:46;9.80;99.90
14122;DHT22;7139;48.114;11.442;2022-09-29T19:38:17;9.80;99.90
14122;DHT22;7139;48.114;11.442;2022-09-29T19:40:45;9.80;99.90
14122;DHT22;7139;48.114;11.442;2022-09-29T19:43:12;9.80;99.90
14122;DHT22;7139;48.114;11.442;2022-09-29T19:45:40;9.70;99.90
14122;DHT22;7139;48.114;11.442;2022-09-29T19:48:12;9.70;99.90
14122;DHT22;7139;48.114;11.442;2022-09-29T19:50:39;9.70;99.90
14122;DHT22;7139;48.114;11.442;2022-09-29T19:53:25;9.70;99.90
14122;DHT22;7139;48.114;11.442;2022-09-29T19:55:52;9.60;99.90
14122;DHT22;7139;48.114;11.442;2022-09-29T19:58:19;9.70;99.90
14122;DHT22;7139;48.114;11.442;2022-09-29T20:00:45;9.60;99.90
14122;DHT22;7139;48.114;11.442;2022-09-29T20:03:12;9.60;99.90
14122;DHT22;7139;48.114;11.442;2022-09-29T20:05:39;9.50;99.90
14122;DHT22;7139;48.114;11.442;2022-09-29T20:08:06;9.50;99.90
14122;DHT22;7139;48.114;11.442;2022-09-29T20:10:35;9.50;99.90
14122;DHT22;7139;48.114;11.442;2022-09-29T20:13:02;9.50;99.90
14122;DHT22;7139;48.114;11.442;2022-09-29T20:15:29;9.50;99.90
14122;DHT22;7139;48.114;11.442;2022-09-29T20:17:56;9.40;99.90
14122;DHT22;7139;48.114;11.442;2022-09-29T20:20:22;9.40;99.90
14122;DHT22;7139;48.114;11.442;2022-09-29T20:22:49;9.40;99.90
14122;DHT22;7139;48.114;11.442;2022-09-29T20:25:17;9.40;99.90
14122;DHT22;7139;48.114;11.442;2022-09-29T20:27:46;9.40;99.90
14122;DHT22;7139;48.114;11.442;2022-09-29T20:30:15;9.40;99.90
14122;DHT22;7139;48.114;11.442;2022-09-29T20:32:45;9.40;99.90
14122;DHT22;7139;48.114;11.442;2022-09-29T20:35:14;9.40;99.90
14122;DHT22;7139;48.114;11.442;2022-09-29T20:37:40;9.40;99.90
14122;DHT22;7139;48.114;11.442;2022-09-29T20:40:08;9.40;99.90
14122;DHT22;7139;48.114;11.442;2022-09-29T20:42:35;9.40;99.90
14122;DHT22;7139;48.114;11.442;2022-09-29T20:45:05;9.30;99.90
14122;DHT22;7139;48.114;11.442;2022-09-29T20:47:32;9.40;99.90
14122;DHT22;7139;48.114;11.442;2022-09-29T20:50:00;9.30;99.90
14122;DHT22;7139;48.114;11.442;2022-09-29T20:52:26;9.30;99.90
14122;DHT22;7139;48.114;11.442;2022-09-29T20:54:53;9.30;99.90
14122;DHT22;7139;48.114;11.442;2022-09-29T20:57:25;9.20;99.90
14122;DHT22;7139;48.114;11.442;2022-09-29T20:59:52;9.30;99.90
14122;DHT22;7139;48.114;11.442;2022-09-29T21:02:21;9.30;99.90
14122;DHT22;7139;48.114;11.442;2022-09-29T21:04:48;9.30;99.90
14122;DHT22;7139;48.114;11.442;2022-09-29T21:07:15;9.30;99.90
14122;DHT22;7139;48.114;11.442;2022-09-29T21:09:59;9.40;99.90
14122;DHT22;7139;48.114;11.442;2022-09-29T21:12:27;9.30;99.90
14122;DHT22;7139;48.114;11.442;2022-09-29T21:14:54;9.30;99.90
14122;DHT22;7139;48.114;11.442;2022-09-29T21:17:22;9.30;99.90
14122;DHT22;7139;48.114;11.442;2022-09-29T21:19:49;9.30;99.90
14122;DHT22;7139;48.114;11.442;2022-09-29T21:22:16;9.30;99.90
14122;DHT22;7139;48.114;11.442;2022-09-29T21:24:43;9.20;99.90
14122;DHT22;7139;48.114;11.442;2022-09-29T21:27:10;9.20;99.90
14122;DHT22;7139;48.114;11.442;2022-09-29T21:29:37;9.20;99.90
14122;DHT22;7139;48.114;11.442;2022-09-29T21:32:03;9.20;99.90
14122;DHT22;7139;48.114;11.442;2022-09-29T21:34:31;9.20;99.90
14122;DHT22;7139;48.114;11.442;2022-09-29T21:36:58;9.20;99.90
14122;DHT22;7139;48.114;11.442;2022-09-29T21:39:25;9.20;99.90
14122;DHT22;7139;48.114;11.442;2022-09-29T21:41:52;9.20;99.90
14122;DHT22;7139;48.114;11.442;2022-09-29T21:44:20;9.10;99.90
14122;DHT22;7139;48.114;11.442;2022-09-29T21:46:48;9.20;99.90
14122;DHT22;7139;48.114;11.442;2022-09-29T21:49:16;9.20;99.90
14122;DHT22;7139;48.114;11.442;2022-09-29T21:51:46;9.20;99.90
14122;DHT22;7139;48.114;11.442;2022-09-29T21:54:15;9.10;99.90
14122;DHT22;7139;48.114;11.442;2022-09-29T21:56:43;9.20;99.90
14122;DHT22;7139;48.114;11.442;2022-09-29T21:59:11;9.20;99.90
14122;DHT22;7139;48.114;11.442;2022-09-29T22:01:39;9.20;99.90
14122;DHT22;7139;48.114;11.442;2022-09-29T22:04:06;9.20;99.90
14122;DHT22;7139;48.114;11.442;2022-09-29T22:06:34;9.20;99.90
14122;DHT22;7139;48.114;11.442;2022-09-29T22:09:04;9.20;99.90
14122;DHT22;7139;48.114;11.442;2022-09-29T22:11:33;9.20;99.90
14122;DHT22;7139;48.114;11.442;2022-09-29T22:14:03;9.20;99.90
14122;DHT22;7139;48.114;11.442;2022-09-29T22:16:31;9.20;99.90
14122;DHT22;7139;48.114;11.442;2022-09-29T22:19:00;9.10;99.90
14122;DHT22;7139;48.114;11.442;2022-09-29T22:21:28;9.10;99.90
14122;DHT22;7139;48.114;11.442;2022-09-29T22:23:56;9.20;99.90
14122;DHT22;7139;48.114;11.442;2022-09-29T22:26:25;9.20;99.90
14122;DHT22;7139;48.114;11.442;2022-09-29T22:28:54;9.20;99.90
14122;DHT22;7139;48.114;11.442;2022-09-29T22:31:23;9.20;99.90
14122;DHT22;7139;48.114;11.442;2022-09-29T22:33:54;9.20;99.90
14122;DHT22;7139;48.114;11.442;2022-09-29T22:36:22;9.20;99.90
14122;DHT22;7139;48.114;11.442;2022-09-29T22:38:49;9.20;99.90
14122;DHT22;7139;48.114;11.442;2022-09-29T22:41:16;9.20;99.90
14122;DHT22;7139;48.114;11.442;2022-09-29T22:43:50;9.20;99.90
14122;DHT22;7139;48.114;11.442;2022-09-29T22:46:17;9.20;99.90
14122;DHT22;7139;48.114;11.442;2022-09-29T22:48:44;9.20;99.90
14122;DHT22;7139;48.114;11.442;2022-09-29T22:51:11;9.20;99.90
14122;DHT22;7139;48.114;11.442;2022-09-29T22:53:39;9.20;99.90
14122;DHT22;7139;48.114;11.442;2022-09-29T22:56:09;9.20;99.90
14122;DHT22;7139;48.114;11.442;2022-09-29T22:58:37;9.20;99.90
14122;DHT22;7139;48.114;11.442;2022-09-29T23:01:08;9.20;99.90
14122;DHT22;7139;48.114;11.442;2022-09-29T23:03:35;9.20;99.90
14122;DHT22;7139;48.114;11.442;2022-09-29T23:06:02;9.20;99.90
14122;DHT22;7139;48.114;11.442;2022-09-29T23:08:30;9.20;99.90
14122;DHT22;7139;48.114;11.442;2022-09-29T23:10:59;9.20;99.90
14122;DHT22;7139;48.114;11.442;2022-09-29T23:13:29;9.20;99.90
14122;DHT22;7139;48.114;11.442;2022-09-29T23:16:00;9.20;99.90
14122;DHT22;7139;48.114;11.442;2022-09-29T23:18:28;9.20;99.90
14122;DHT22;7139;48.114;11.442;2022-09-29T23:21:00;9.20;99.90
14122;DHT22;7139;48.114;11.442;2022-09-29T23:23:28;9.10;99.90
14122;DHT22;7139;48.114;11.442;2022-09-29T23:25:56;9.10;99.90
14122;DHT22;7139;48.114;11.442;2022-09-29T23:28:23;9.10;99.90
14122;DHT22;7139;48.114;11.442;2022-09-29T23:30:51;9.10;99.90
14122;DHT22;7139;48.114;11.442;2022-09-29T23:33:18;9.10;99.90
14122;DHT22;7139;48.114;11.442;2022-09-29T23:35:46;9.20;99.90
14122;DHT22;7139;48.114;11.442;2022-09-29T23:38:13;9.20;99.90
14122;DHT22;7139;48.114;11.442;2022-09-29T23:40:58;9.20;99.90
14122;DHT22;7139;48.114;11.442;2022-09-29T23:43:25;9.20;99.90
14122;DHT22;7139;48.114;11.442;2022-09-29T23:45:52;9.20;99.90
14122;DHT22;7139;48.114;11.442;2022-09-29T23:48:19;9.20;99.90
14122;DHT22;7139;48.114;11.442;2022-09-29T23:50:48;9.10;99.90
14122;DHT22;7139;48.114;11.442;2022-09-29T23:53:14;9.20;99.90
14122;DHT22;7139;48.114;11.442;2022-09-29T23:55:42;9.20;99.90
14122;DHT22;7139;48.114;11.442;2022-09-29T23:58:08;9.10;99.90
